Time;durP1;ratioP1;P1;durP2;ratioP2;P2;SDS_P1;SDS_P2;PMS_P1;PMS_P2;Temp;Humidity;BMP_temperature;BMP_pressure;BME280_temperature;BME280_humidity;BME280_pressure;Samples;Min_cycle;Max_cycle;Signal;HPM_P1;HPM_P2
2021/09/10 00:01:43;;;;;;;22.05;19.75;;;22.30;99.90;;;22.76;77.78;100958.69;5117070;28;20281;-71
2021/09/10 00:04:12;;;;;;;24.00;19.83;;;22.30;99.90;;;22.86;77.61;100959.94;5117149;28;20031;-72
2021/09/10 00:06:40;;;;;;;26.90;19.80;;;22.30;99.90;;;22.82;77.65;100967.28;5117228;28;20039;-72
2021/09/10 00:09:09;;;;;;;23.23;20.73;;;22.30;99.90;;;22.59;78.07;100943.38;5117456;28;20469;-72
2021/09/10 00:11:37;;;;;;;24.13;20.05;;;22.20;99.90;;;22.70;78.55;100967.09;5116833;28;20500;-71
2021/09/10 00:14:07;;;;;;;23.98;21.15;;;22.20;99.90;;;22.61;78.68;100959.50;5116744;28;20404;-72
2021/09/10 00:16:36;;;;;;;25.38;19.55;;;22.10;99.90;;;22.58;79.29;100962.31;5117339;28;20052;-72
2021/09/10 00:19:04;;;;;;;22.48;19.70;;;22.00;99.90;;;22.55;79.31;100955.22;5116678;28;20063;-72
2021/09/10 00:21:33;;;;;;;23.58;20.77;;;22.00;99.90;;;22.55;79.38;100952.53;5116659;28;20046;-72
2021/09/10 00:24:01;;;;;;;23.63;20.25;;;22.00;99.90;;;22.49;79.67;100960.09;5116624;28;20043;-72
2021/09/10 00:26:30;;;;;;;24.90;21.98;;;22.00;99.90;;;22.39;79.96;100957.00;5116869;28;20093;-72
2021/09/10 00:28:58;;;;;;;26.92;21.02;;;21.90;99.90;;;22.42;80.16;100956.81;5098520;28;20051;-72
2021/09/10 00:31:28;;;;;;;26.35;21.17;;;21.90;99.90;;;22.44;80.29;100952.22;5116815;28;20115;-72
2021/09/10 00:34:01;;;;;;;23.02;20.40;;;21.90;99.90;;;22.37;80.46;100940.91;5116679;28;20052;-72
2021/09/10 00:36:29;;;;;;;25.10;21.75;;;21.90;99.90;;;22.48;80.39;100948.44;5116409;28;20122;-72
2021/09/10 00:38:58;;;;;;;26.25;22.58;;;21.90;99.90;;;22.48;80.88;100951.13;5116610;28;20043;-72
2021/09/10 00:41:26;;;;;;;25.48;22.45;;;21.90;99.90;;;22.42;80.89;100946.91;5116841;28;20039;-72
2021/09/10 00:43:54;;;;;;;26.60;21.17;;;21.90;99.90;;;22.57;80.28;100953.34;5116384;28;20047;-72
2021/09/10 00:46:23;;;;;;;24.13;21.73;;;22.00;99.90;;;22.63;80.20;100950.34;5098154;28;20086;-72
2021/09/10 00:48:53;;;;;;;27.00;21.83;;;22.10;99.90;;;22.59;80.17;100950.59;5116139;28;20419;-72
2021/09/10 00:51:21;;;;;;;25.80;22.80;;;22.10;99.90;;;22.56;80.22;100943.50;5116670;28;20043;-72
2021/09/10 00:53:50;;;;;;;29.55;21.77;;;22.10;99.90;;;22.56;80.51;100948.03;5116059;28;20032;-72
2021/09/10 00:56:18;;;;;;;26.77;22.35;;;22.10;99.90;;;22.35;80.71;100923.94;5116588;28;20072;-72
2021/09/10 00:58:47;;;;;;;25.45;22.00;;;22.00;99.90;;;22.51;80.74;100945.59;5115911;28;20119;-71
2021/09/10 01:01:15;;;;;;;24.45;21.77;;;22.00;99.90;;;22.58;80.48;100944.34;5115185;28;20120;-72
2021/09/10 01:03:44;;;;;;;28.90;23.20;;;22.10;99.90;;;22.58;80.26;100938.94;5115925;28;20487;-72
2021/09/10 01:06:14;;;;;;;29.33;23.95;;;22.20;99.90;;;22.69;80.10;100943.75;5115835;28;20047;-72
2021/09/10 01:08:44;;;;;;;25.17;21.67;;;22.30;99.90;;;22.68;79.87;100939.31;5115816;28;20446;-71
2021/09/10 01:11:15;;;;;;;27.38;21.95;;;22.30;99.90;;;22.67;79.92;100941.13;5097666;28;20043;-72
2021/09/10 01:13:45;;;;;;;25.38;22.30;;;22.30;99.90;;;22.70;79.83;100942.81;5116044;28;20051;-72
2021/09/10 01:16:14;;;;;;;28.27;21.05;;;22.30;99.90;;;22.58;80.14;100911.97;5115960;28;20542;-72
2021/09/10 01:18:43;;;;;;;30.05;22.60;;;22.30;99.90;;;22.73;80.06;100931.84;5114513;28;20469;-73
2021/09/10 01:21:11;;;;;;;25.15;22.52;;;22.40;99.90;;;22.72;80.03;100935.50;5115812;28;20040;-72
2021/09/10 01:23:41;;;;;;;24.27;21.27;;;22.40;99.90;;;22.80;79.88;100934.13;5115464;28;20104;-72
2021/09/10 01:26:11;;;;;;;25.70;20.73;;;22.40;99.90;;;22.83;80.13;100927.72;5115744;28;20051;-72
2021/09/10 01:28:40;;;;;;;24.70;21.55;;;22.40;99.90;;;22.88;80.11;100931.06;5115405;28;20039;-72
2021/09/10 01:31:08;;;;;;;27.15;22.15;;;22.50;99.90;;;22.78;81.07;100924.41;5115622;28;20039;-72
2021/09/10 01:33:37;;;;;;;24.38;21.70;;;22.40;99.90;;;22.88;80.97;100933.75;5115344;28;20104;-72
2021/09/10 01:36:08;;;;;;;25.77;21.80;;;22.50;99.90;;;22.88;81.18;100920.25;5115205;28;20489;-72
2021/09/10 01:38:36;;;;;;;24.85;21.02;;;22.50;99.90;;;22.95;81.40;100932.44;5115146;28;20496;-72
2021/09/10 01:41:05;;;;;;;25.17;20.80;;;22.50;99.90;;;22.97;81.27;100927.84;5115372;28;20046;-72
2021/09/10 01:43:35;;;;;;;23.95;20.13;;;22.60;99.90;;;22.91;82.00;100920.94;5114861;28;20043;-72
2021/09/10 01:46:04;;;;;;;28.75;21.50;;;22.50;99.90;;;22.53;81.89;100854.66;5115383;28;20070;-72
2021/09/10 01:48:32;;;;;;;24.45;20.85;;;22.50;99.90;;;22.95;82.31;100925.22;5115268;28;20048;-72
2021/09/10 01:51:00;;;;;;;25.48;20.52;;;22.60;99.90;;;22.94;82.41;100928.88;5115197;28;20096;-73
2021/09/10 01:53:32;;;;;;;26.67;21.73;;;22.60;99.90;;;23.02;82.03;100934.72;5115148;28;20096;-72
2021/09/10 01:56:02;;;;;;;23.77;20.08;;;22.60;99.90;;;22.68;81.76;100869.19;5096915;28;20473;-72
2021/09/10 01:58:30;;;;;;;23.58;20.52;;;22.60;99.90;;;23.07;81.93;100931.78;5114786;28;20540;-73
2021/09/10 02:01:01;;;;;;;24.95;20.90;;;22.60;99.90;;;23.13;81.58;100929.59;5114651;28;20468;-72
2021/09/10 02:03:30;;;;;;;26.98;21.83;;;22.70;99.90;;;23.14;81.46;100933.19;5114763;28;20067;-72
2021/09/10 02:05:59;;;;;;;22.38;19.92;;;22.70;99.90;;;23.18;81.31;100922.13;5114789;28;20070;-72
2021/09/10 02:08:28;;;;;;;28.50;21.75;;;22.70;99.90;;;23.21;81.39;100929.19;5114349;28;20046;-73
2021/09/10 02:10:56;;;;;;;25.02;20.73;;;22.70;99.90;;;23.09;81.20;100909.13;5113960;28;20131;-73
2021/09/10 02:13:24;;;;;;;25.00;20.98;;;22.80;99.90;;;23.00;80.94;100892.56;5113842;28;20047;-73
2021/09/10 02:15:53;;;;;;;26.00;20.27;;;22.80;99.90;;;23.14;81.23;100931.38;5114155;28;20039;-73
2021/09/10 02:18:23;;;;;;;25.70;20.42;;;22.80;99.90;;;23.26;81.04;100938.78;5113763;28;20481;-73
2021/09/10 02:20:51;;;;;;;24.80;21.25;;;22.80;99.90;;;23.28;80.73;100946.78;5114000;28;20072;-73
2021/09/10 02:23:20;;;;;;;26.80;20.60;;;22.80;99.90;;;23.29;80.57;100935.91;5113685;28;20054;-73
2021/09/10 02:25:48;;;;;;;24.90;19.95;;;22.80;99.90;;;23.35;80.24;100947.34;5113942;28;20039;-73
2021/09/10 02:28:16;;;;;;;23.02;20.63;;;22.80;99.90;;;23.32;80.14;100945.72;5095564;28;20489;-74
2021/09/10 02:30:44;;;;;;;24.58;20.73;;;22.90;99.90;;;23.31;80.22;100946.66;5095489;28;20081;-73
2021/09/10 02:33:14;;;;;;;22.88;20.10;;;22.80;99.90;;;23.28;79.84;100939.56;5113352;28;20126;-73
2021/09/10 02:35:43;;;;;;;28.33;21.17;;;22.80;99.90;;;23.30;79.96;100942.19;5113635;28;20109;-73
2021/09/10 02:38:12;;;;;;;25.08;20.73;;;22.80;99.90;;;23.22;79.92;100941.72;5113387;28;20067;-73
2021/09/10 02:40:41;;;;;;;26.02;20.73;;;22.80;99.90;;;23.25;80.13;100949.66;5113567;28;20460;-73
2021/09/10 02:43:09;;;;;;;22.45;19.77;;;22.80;99.90;;;23.27;79.92;100951.31;5113045;28;20540;-73
2021/09/10 02:45:38;;;;;;;28.02;20.92;;;22.80;99.90;;;23.26;79.92;100957.69;5113256;28;20489;-73
2021/09/10 02:48:06;;;;;;;27.20;21.13;;;22.80;99.90;;;23.23;79.68;100954.25;5113285;28;20519;-73
2021/09/10 02:50:35;;;;;;;24.55;20.08;;;22.80;99.90;;;23.25;79.63;100955.03;5095128;28;20043;-73
2021/09/10 02:53:06;;;;;;;25.47;19.90;;;22.70;99.90;;;23.20;79.76;100955.31;5113414;28;20054;-73
2021/09/10 02:55:34;;;;;;;25.25;20.15;;;22.70;99.90;;;23.20;79.62;100951.75;5113369;28;20128;-73
2021/09/10 02:58:03;;;;;;;25.23;20.65;;;22.70;99.90;;;23.00;79.60;100925.84;5113218;28;20397;-73
2021/09/10 03:00:31;;;;;;;25.02;19.88;;;22.70;99.90;;;23.13;79.78;100955.75;5094875;28;20050;-73
2021/09/10 03:03:00;;;;;;;23.67;20.92;;;22.70;99.90;;;23.16;79.85;100952.88;5113024;28;20036;-73
2021/09/10 03:05:29;;;;;;;24.58;21.05;;;22.70;99.90;;;23.13;79.86;100948.50;5094615;28;20067;-73
2021/09/10 03:07:58;;;;;;;26.42;21.65;;;22.70;99.90;;;22.98;79.96;100918.78;5112804;28;20047;-73
2021/09/10 03:10:28;;;;;;;29.05;21.02;;;22.70;99.90;;;23.01;79.53;100915.94;5112925;28;20051;-73
2021/09/10 03:12:56;;;;;;;26.20;21.50;;;22.70;99.90;;;23.26;79.46;100954.09;5113289;28;20051;-73
2021/09/10 03:15:25;;;;;;;26.77;20.85;;;22.70;99.90;;;22.71;79.53;100860.94;5112908;28;20043;-73
2021/09/10 03:17:53;;;;;;;23.80;21.13;;;22.80;99.90;;;23.26;79.50;100951.41;5094982;28;20127;-73
2021/09/10 03:20:21;;;;;;;25.92;20.73;;;22.70;99.90;;;23.29;79.32;100954.81;5112724;28;20039;-73
2021/09/10 03:22:50;;;;;;;23.60;20.65;;;22.80;99.90;;;23.27;79.31;100953.13;5113080;28;20404;-73
2021/09/10 03:25:18;;;;;;;24.95;21.40;;;22.80;99.90;;;23.32;79.58;100958.31;5115532;28;20071;-73
2021/09/10 03:27:48;;;;;;;25.88;21.90;;;22.80;99.90;;;23.27;79.62;100945.91;5117581;28;20035;-73
2021/09/10 03:30:16;;;;;;;26.03;22.53;;;22.80;99.90;;;23.32;79.67;100961.03;5117326;28;20411;-73
2021/09/10 03:32:45;;;;;;;28.98;21.70;;;22.80;99.90;;;23.36;79.61;100958.09;5117505;28;20048;-73
2021/09/10 03:35:13;;;;;;;28.05;21.60;;;22.80;99.90;;;23.26;79.39;100959.50;5116813;28;20043;-73
2021/09/10 03:37:42;;;;;;;27.67;23.15;;;22.90;99.90;;;23.35;79.66;100956.31;5098783;28;20071;-73
2021/09/10 03:40:12;;;;;;;25.73;22.35;;;22.90;99.90;;;23.28;79.64;100954.91;5116706;28;20053;-73
2021/09/10 03:42:40;;;;;;;27.45;22.63;;;22.80;99.90;;;23.32;79.53;100948.41;5116551;28;20046;-73
2021/09/10 03:45:11;;;;;;;25.70;22.23;;;22.80;99.90;;;23.33;79.41;100950.13;5117282;28;20047;-73
2021/09/10 03:47:40;;;;;;;25.23;22.45;;;22.80;99.90;;;23.32;79.47;100952.94;5116904;28;20386;-73
2021/09/10 03:50:09;;;;;;;26.73;20.83;;;22.80;99.90;;;23.31;79.37;100946.66;5116944;28;20122;-73
2021/09/10 03:52:38;;;;;;;29.67;21.98;;;22.80;99.90;;;22.88;79.11;100877.09;5116831;28;20047;-73
2021/09/10 03:55:08;;;;;;;28.13;23.63;;;22.80;99.90;;;23.28;79.44;100944.09;5116472;28;20114;-74
2021/09/10 03:57:36;;;;;;;25.83;21.92;;;22.80;99.90;;;23.27;79.32;100951.31;5117100;28;20074;-74
2021/09/10 04:00:08;;;;;;;24.20;21.23;;;22.80;99.90;;;23.28;79.50;100963.88;5116457;28;20035;-73
2021/09/10 04:02:41;;;;;;;26.98;22.25;;;22.80;99.90;;;23.18;79.52;100953.66;5116448;28;20051;-74
2021/09/10 04:05:12;;;;;;;25.00;22.08;;;22.70;99.90;;;23.22;79.33;100960.63;5116751;28;20071;-74
2021/09/10 04:07:41;;;;;;;;;;;22.70;99.90;;;23.22;79.18;100955.22;5116928;28;20124;-74
2021/09/10 04:10:11;;;;;;;26.52;22.15;;;22.80;99.90;;;23.05;79.07;100944.50;5116188;28;20357;-73
2021/09/10 04:12:40;;;;;;;24.55;21.80;;;22.70;99.90;;;23.18;79.03;100967.16;5116782;28;20046;-73
2021/09/10 04:15:10;;;;;;;30.40;24.25;;;22.70;99.90;;;23.14;78.93;100957.47;5116640;28;20032;-73
2021/09/10 04:17:38;;;;;;;27.27;22.42;;;22.70;99.90;;;23.14;79.12;100968.28;5116121;28;20050;-73
2021/09/10 04:20:12;;;;;;;26.38;22.10;;;22.60;99.90;;;23.12;78.94;100956.69;5116249;28;20036;-74
2021/09/10 04:22:40;;;;;;;24.58;21.45;;;22.60;99.90;;;23.09;79.10;100954.16;5116312;28;20043;-74
2021/09/10 04:25:10;;;;;;;29.05;24.02;;;22.60;99.90;;;22.62;79.21;100874.91;5115920;28;20469;-73
2021/09/10 04:27:39;;;;;;;24.98;22.38;;;22.60;99.90;;;23.13;79.08;100963.84;5115873;28;20077;-73
2021/09/10 04:30:09;;;;;;;28.13;22.67;;;22.60;99.90;;;23.12;79.00;100960.25;5115935;28;20039;-73
2021/09/10 04:32:38;;;;;;;;;;;22.60;99.90;;;21.63;79.05;100714.91;5116900;28;20370;-74
2021/09/10 04:35:11;;;;;;;32.08;23.63;;;22.60;99.90;;;23.09;79.13;100956.88;5115983;28;20440;-73
2021/09/10 04:37:40;;;;;;;26.70;22.67;;;22.60;99.90;;;23.05;78.92;100950.72;5115877;28;20044;-73
2021/09/10 04:40:10;;;;;;;30.88;23.35;;;22.60;99.90;;;23.08;78.91;100961.38;5116061;28;20040;-73
2021/09/10 04:42:39;;;;;;;29.40;22.77;;;22.60;99.90;;;23.06;79.04;100962.41;5115553;28;20131;-73
2021/09/10 04:45:09;;;;;;;27.70;23.05;;;22.60;99.90;;;23.13;78.98;100961.16;5097739;28;20477;-73
2021/09/10 04:47:37;;;;;;;25.38;22.65;;;22.60;99.90;;;23.13;78.96;100953.06;5116022;28;20126;-73
2021/09/10 04:50:07;;;;;;;27.38;23.35;;;22.60;99.90;;;23.13;79.02;100953.91;5115608;28;20135;-73
2021/09/10 04:52:38;;;;;;;30.15;23.88;;;22.60;99.90;;;23.13;79.09;100940.41;5115640;28;20048;-73
2021/09/10 04:55:09;;;;;;;30.30;23.83;;;22.60;99.90;;;23.14;78.82;100949.38;5115589;28;20050;-74
2021/09/10 04:57:37;;;;;;;;;;;22.60;99.90;;;23.04;78.95;100940.91;5116205;28;20040;-73
2021/09/10 05:00:07;;;;;;;25.50;22.40;;;22.60;99.90;;;23.08;79.33;100941.63;5115848;28;20022;-73
2021/09/10 05:02:36;;;;;;;26.52;21.83;;;22.60;99.90;;;22.93;79.41;100926.25;5115866;28;20089;-73
2021/09/10 05:05:08;;;;;;;31.38;24.90;;;22.50;99.90;;;22.99;79.78;100950.22;5115286;28;20041;-73
2021/09/10 05:07:37;;;;;;;27.70;22.83;;;22.50;99.90;;;22.93;79.92;100947.84;5115551;28;20445;-73
2021/09/10 05:10:07;;;;;;;27.10;24.08;;;22.40;99.90;;;22.63;79.72;100888.31;5115253;28;20071;-73
2021/09/10 05:12:35;;;;;;;26.45;23.60;;;22.50;99.90;;;22.99;79.31;100956.50;5115730;28;20063;-73
2021/09/10 05:15:06;;;;;;;30.27;23.35;;;22.40;99.90;;;23.01;79.58;100959.09;5115122;28;20650;-73
2021/09/10 05:17:34;;;;;;;30.92;24.58;;;22.50;99.90;;;23.05;79.18;100960.69;5115118;28;20082;-73
2021/09/10 05:20:03;;;;;;;29.02;23.75;;;22.50;99.90;;;22.91;79.06;100930.88;5115005;28;20039;-73
2021/09/10 05:22:31;;;;;;;31.88;24.25;;;22.50;99.90;;;23.09;79.13;100962.25;5115160;28;20046;-73
2021/09/10 05:25:01;;;;;;;29.27;23.58;;;22.60;99.90;;;23.08;78.75;100969.47;5114909;28;20114;-73
2021/09/10 05:27:30;;;;;;;26.55;23.35;;;22.60;99.90;;;23.12;78.80;100970.19;5115047;28;20350;-73
2021/09/10 05:29:58;;;;;;;28.77;22.40;;;22.60;99.90;;;23.10;78.78;100970.28;5114780;28;20036;-73
2021/09/10 05:32:27;;;;;;;25.55;22.25;;;22.60;99.90;;;23.18;78.69;100988.75;5114694;28;20118;-73
2021/09/10 05:34:55;;;;;;;27.02;22.50;;;22.60;99.90;;;22.48;78.19;100853.19;5115009;28;20072;-73
2021/09/10 05:37:23;;;;;;;30.75;22.83;;;22.70;99.90;;;23.22;78.45;100979.53;5115058;28;20548;-73
2021/09/10 05:39:52;;;;;;;26.58;22.70;;;22.70;99.90;;;23.17;78.33;100973.53;5114885;28;20100;-73
2021/09/10 05:42:22;;;;;;;25.98;22.63;;;22.70;99.90;;;23.24;78.16;100983.00;5115163;28;20492;-73
2021/09/10 05:44:51;;;;;;;26.85;22.83;;;22.70;99.90;;;23.23;78.23;100987.53;5114876;28;20040;-73
2021/09/10 05:47:20;;;;;;;27.85;21.85;;;22.70;99.90;;;23.27;78.00;100993.63;5113917;28;20039;-73
2021/09/10 05:49:48;;;;;;;28.20;22.85;;;22.70;99.90;;;23.04;78.30;100958.91;5114545;28;20050;-73
2021/09/10 05:52:17;;;;;;;28.48;25.02;;;22.70;99.90;;;23.30;78.15;101002.47;5114779;28;20043;-73
2021/09/10 05:54:46;;;;;;;29.52;23.50;;;22.80;99.90;;;23.30;78.14;100998.88;5114675;28;20040;-73
2021/09/10 05:57:15;;;;;;;23.55;20.30;;;22.80;99.90;;;23.28;78.19;101000.78;5114627;28;20381;-73
2021/09/10 05:59:46;;;;;;;24.40;21.13;;;22.80;99.90;;;23.21;77.85;101004.75;5114593;28;20135;-73
2021/09/10 06:02:14;;;;;;;24.23;20.10;;;22.70;99.90;;;23.21;78.20;100999.38;5114525;28;20048;-73
2021/09/10 06:04:43;;;;;;;23.98;20.88;;;22.70;99.90;;;23.25;78.13;100996.41;5114836;28;20040;-73
2021/09/10 06:07:12;;;;;;;24.15;20.67;;;22.70;99.90;;;23.30;77.92;101007.84;5096332;28;20484;-73
2021/09/10 06:09:41;;;;;;;28.10;23.63;;;22.80;99.90;;;23.24;77.59;100996.50;5114658;28;20464;-73
2021/09/10 06:12:10;;;;;;;24.23;21.45;;;22.80;99.90;;;23.36;77.48;101001.28;5114542;28;20105;-73
2021/09/10 06:14:39;;;;;;;30.33;22.50;;;22.80;99.90;;;23.35;77.13;101004.91;5114304;28;20036;-73
2021/09/10 06:17:09;;;;;;;27.33;22.30;;;22.90;99.90;;;23.39;77.03;101008.31;5096361;28;20496;-73
2021/09/10 06:19:38;;;;;;;25.10;19.88;;;22.90;99.90;;;23.42;77.28;101011.75;5114340;28;20039;-70
2021/09/10 06:22:07;;;;;;;24.15;21.05;;;22.90;99.90;;;23.42;77.80;101006.34;5114724;28;20044;-76
2021/09/10 06:24:36;;;;;;;26.33;20.33;;;22.90;99.90;;;23.46;77.93;101016.00;5114482;28;20053;-78
2021/09/10 06:27:05;;;;;;;22.73;20.30;;;22.90;99.90;;;23.41;77.91;101012.69;5114182;28;20044;-77
2021/09/10 06:29:34;;;;;;;23.65;20.30;;;22.90;99.90;;;23.49;77.95;101021.25;5114127;28;20051;-77
2021/09/10 06:32:04;;;;;;;23.38;19.80;;;22.90;99.90;;;23.32;78.10;101013.22;5114307;28;20397;-68
2021/09/10 06:34:34;;;;;;;21.87;19.57;;;22.90;99.90;;;23.41;77.84;101023.50;5095801;28;20477;-68
2021/09/10 06:37:03;;;;;;;24.85;18.50;;;22.90;99.90;;;23.33;77.96;101027.56;5113837;28;20043;-68
2021/09/10 06:39:34;;;;;;;20.85;18.08;;;22.90;99.90;;;23.34;78.23;101035.59;5113928;28;20039;-69
2021/09/10 06:42:03;;;;;;;;;;;22.90;99.90;;;23.27;78.28;101020.63;5096399;28;20576;-66
2021/09/10 06:44:32;;;;;;;23.63;19.05;;;22.90;99.90;;;23.45;78.38;101035.88;5113631;28;19919;-71
2021/09/10 06:47:01;;;;;;;22.60;19.42;;;23.00;99.90;;;23.40;78.39;101024.47;5114186;28;20047;-69
2021/09/10 06:49:33;;;;;;;23.50;18.40;;;23.00;99.90;;;23.45;78.71;101043.97;5113931;28;20040;-69
2021/09/10 06:52:02;;;;;;;22.70;18.15;;;23.00;99.90;;;23.47;79.19;101043.88;5114478;28;20051;-69
2021/09/10 06:54:31;;;;;;;21.13;17.00;;;23.00;99.90;;;23.43;79.24;101037.78;5113773;28;20089;-69
2021/09/10 06:57:00;;;;;;;23.05;16.83;;;23.00;99.90;;;23.51;79.17;101050.88;5113956;28;20511;-70
2021/09/10 06:59:28;;;;;;;23.08;16.33;;;23.00;99.90;;;23.44;79.12;101042.22;5113766;28;20040;-69
2021/09/10 07:01:57;;;;;;;22.33;16.95;;;23.00;99.90;;;23.49;79.37;101050.06;5113629;28;20043;-69
2021/09/10 07:04:27;;;;;;;18.35;16.13;;;23.00;99.90;;;23.60;79.62;101053.03;5113883;28;20040;-67
2021/09/10 07:06:57;;;;;;;21.45;15.98;;;23.10;99.90;;;23.54;79.46;101056.97;5113160;28;20051;-69
2021/09/10 07:09:26;;;;;;;;;;;23.10;99.90;;;23.46;79.33;101045.69;5113920;28;20493;-67
2021/09/10 07:11:55;;;;;;;17.95;15.07;;;23.10;99.90;;;23.54;79.61;101056.97;5113606;28;19942;-65
2021/09/10 07:14:24;;;;;;;21.70;15.85;;;23.10;99.90;;;23.50;79.43;101060.78;5113833;28;20042;-67
2021/09/10 07:16:52;;;;;;;19.10;15.18;;;23.10;99.90;;;23.56;79.19;101070.38;5113774;28;20045;-67
2021/09/10 07:19:21;;;;;;;17.50;15.63;;;23.10;99.90;;;23.56;79.88;101073.06;5113406;28;20123;-68
2021/09/10 07:21:50;;;;;;;18.77;14.95;;;23.10;99.90;;;23.56;79.54;101078.47;5113347;28;20036;-69
2021/09/10 07:24:21;;;;;;;22.40;14.80;;;23.10;99.90;;;23.58;79.76;101084.66;5113650;28;20039;-66
2021/09/10 07:26:51;;;;;;;18.88;13.52;;;23.10;99.90;;;23.55;79.59;101083.03;5113680;28;20451;-68
2021/09/10 07:29:22;;;;;;;16.92;13.00;;;23.10;99.90;;;23.57;79.59;101086.53;5113423;28;20042;-66
2021/09/10 07:31:52;;;;;;;16.10;12.38;;;23.10;99.90;;;23.43;78.75;101088.22;5113412;28;20048;-74
2021/09/10 07:34:21;;;;;;;16.05;12.27;;;23.00;99.90;;;23.40;78.00;101086.56;5113368;28;20071;-73
2021/09/10 07:36:51;;;;;;;18.88;11.93;;;22.90;99.90;;;23.32;77.95;101088.81;5113594;28;20062;-73
2021/09/10 07:39:22;;;;;;;;;;;22.90;99.90;;;23.14;77.92;101065.44;5113798;28;20042;-73
2021/09/10 07:41:51;;;;;;;17.52;12.20;;;22.90;99.90;;;23.26;78.15;101089.09;5113627;28;19919;-73
2021/09/10 07:44:20;;;;;;;16.13;12.77;;;22.80;99.90;;;23.24;78.17;101091.00;5113381;28;20043;-73
2021/09/10 07:46:52;;;;;;;13.75;11.52;;;22.80;99.90;;;23.30;78.01;101078.06;5113621;28;20114;-73
2021/09/10 07:49:21;;;;;;;16.92;12.00;;;22.90;99.90;;;23.36;77.89;101082.28;5113209;28;20047;-73
2021/09/10 07:51:51;;;;;;;15.23;11.15;;;22.90;99.90;;;23.44;77.48;101084.56;5113709;28;20085;-74
2021/09/10 07:54:21;;;;;;;19.45;13.75;;;23.00;99.90;;;23.53;76.56;101092.16;5113074;28;20048;-73
2021/09/10 07:56:50;;;;;;;14.80;13.00;;;23.00;99.90;;;23.74;76.67;101091.88;5113229;28;20481;-74
2021/09/10 07:59:19;;;;;;;13.55;12.18;;;23.20;99.90;;;23.84;76.06;101101.22;5113250;28;20042;-73
2021/09/10 08:01:48;;;;;;;13.95;11.63;;;23.40;99.90;;;23.88;75.71;101104.63;5113060;28;20042;-73
2021/09/10 08:04:17;;;;;;;17.10;11.95;;;23.40;99.90;;;23.94;75.49;101110.53;5112838;28;20040;-73
2021/09/10 08:06:46;;;;;;;17.80;11.40;;;23.50;99.90;;;24.03;75.80;101112.78;5113056;28;20048;-73
2021/09/10 08:09:15;;;;;;;14.48;11.88;;;23.60;99.90;;;23.99;75.43;101116.56;5113289;28;20032;-73
2021/09/10 08:11:45;;;;;;;15.68;12.27;;;23.60;99.90;;;24.00;75.06;101120.16;5115648;28;20047;-73
2021/09/10 08:14:15;;;;;;;12.65;11.35;;;23.60;99.90;;;23.97;74.89;101115.78;5116907;28;20103;-73
2021/09/10 08:16:43;;;;;;;15.07;11.07;;;23.50;99.90;;;24.04;75.00;101114.50;5117038;28;20036;-73
2021/09/10 08:19:12;;;;;;;15.77;11.80;;;23.60;99.90;;;24.14;74.79;101115.75;5116647;28;20241;-73
2021/09/10 08:21:44;;;;;;;14.70;11.68;;;23.60;99.90;;;24.13;74.52;101111.31;5116553;28;20378;-73
2021/09/10 08:24:13;;;;;;;18.02;12.82;;;23.70;99.90;;;24.10;74.54;101116.88;5116932;28;20051;-73
2021/09/10 08:26:42;;;;;;;14.25;12.85;;;23.70;99.90;;;24.08;74.32;101101.69;5117037;28;20039;-73
2021/09/10 08:29:11;;;;;;;14.93;12.30;;;23.70;99.90;;;24.10;74.54;101126.81;5116418;28;20039;-73
2021/09/10 08:31:40;;;;;;;15.33;12.47;;;23.60;99.90;;;23.76;74.74;101099.88;5116182;28;20071;-72
2021/09/10 08:34:08;;;;;;;17.65;13.48;;;23.50;99.90;;;23.82;74.85;101118.47;5116597;28;20039;-71
2021/09/10 08:36:37;;;;;;;15.43;13.30;;;23.40;99.90;;;23.84;75.34;101130.06;5116202;28;20047;-71
2021/09/10 08:39:06;;;;;;;15.32;13.73;;;23.40;99.90;;;23.85;75.28;101131.78;5116338;28;20042;-71
2021/09/10 08:41:36;;;;;;;19.15;15.60;;;23.30;99.90;;;23.60;75.82;101099.84;5116511;28;20048;-71
2021/09/10 08:44:06;;;;;;;19.85;17.88;;;23.30;99.90;;;23.72;75.58;101136.13;5116337;28;20480;-72
2021/09/10 08:46:40;;;;;;;21.98;19.77;;;23.20;99.90;;;23.71;75.94;101134.41;5116471;28;20071;-71
2021/09/10 08:49:09;;;;;;;22.95;20.58;;;23.20;99.90;;;23.29;76.12;101070.00;5116714;28;20070;-72
2021/09/10 08:51:38;;;;;;;27.45;23.67;;;23.20;99.90;;;23.60;76.15;101136.78;5116692;28;20044;-71
2021/09/10 08:54:06;;;;;;;26.77;24.00;;;23.20;99.90;;;23.55;76.29;101137.06;5097695;28;20525;-71
2021/09/10 08:56:35;;;;;;;27.70;24.70;;;23.10;99.90;;;23.44;76.20;101116.97;5116473;28;20048;-71
2021/09/10 08:59:09;;;;;;;25.58;23.17;;;23.10;99.90;;;23.60;76.10;101145.78;5116223;28;20062;-71
2021/09/10 09:01:49;;;;;;;27.27;24.35;;;23.10;99.90;;;23.51;76.54;101162.47;5115857;28;20074;-71
2021/09/10 09:04:18;;;;;;;31.20;28.10;;;23.10;99.90;;;23.43;76.51;101153.91;5116108;28;20453;-74
2021/09/10 09:06:51;;;;;;;28.90;26.00;;;23.00;99.90;;;23.48;77.04;101159.91;5115811;28;20408;-72
2021/09/10 09:09:41;;;;;;;26.65;23.85;;;23.00;99.90;;;23.40;77.06;101142.41;5115816;28;20097;-72
2021/09/10 09:12:18;;;;;;;30.90;27.63;;;23.00;99.90;;;23.58;76.93;101163.88;5115723;28;20039;-72
2021/09/10 09:14:52;;;;;;;32.10;28.85;;;23.10;99.90;;;23.65;76.84;101167.16;5115714;28;20040;-72
2021/09/10 09:17:25;;;;;;;29.25;26.42;;;23.20;99.90;;;23.56;76.42;101162.22;5115635;28;20039;-72
2021/09/10 09:20:20;;;;;;;27.88;25.17;;;23.10;99.90;;;23.51;76.50;101154.38;5115873;28;20051;-72
2021/09/10 09:22:58;;;;;;;26.35;22.98;;;23.10;99.90;;;23.18;76.49;101112.91;5114348;28;20050;-72
2021/09/10 09:25:29;;;;;;;27.15;24.33;;;23.00;99.90;;;23.47;76.23;101158.19;5115545;28;20071;-72
2021/09/10 09:28:18;;;;;;;26.17;23.55;;;23.00;99.90;;;23.51;76.26;101164.31;5115512;28;20066;-72
2021/09/10 09:30:48;;;;;;;27.60;24.65;;;23.00;99.90;;;23.43;76.67;101166.53;5115706;28;20051;-72
2021/09/10 09:33:19;;;;;;;30.27;24.58;;;23.00;99.90;;;23.44;76.74;101174.53;5115467;28;20067;-72
2021/09/10 09:35:50;;;;;;;29.35;26.20;;;23.00;99.90;;;23.36;76.81;101170.50;5115538;28;20055;-72
2021/09/10 09:38:24;;;;;;;28.73;25.80;;;22.90;99.90;;;23.42;76.89;101170.19;5115231;28;20036;-72
2021/09/10 09:40:57;;;;;;;27.27;24.45;;;22.90;99.90;;;23.40;77.51;101167.59;5115231;28;20054;-72
2021/09/10 09:43:30;;;;;;;25.58;22.73;;;23.00;99.90;;;23.13;77.33;101152.78;5114882;28;20382;-71
2021/09/10 09:46:00;;;;;;;24.27;21.77;;;22.90;99.90;;;23.39;77.28;101170.34;5096836;28;20097;-72
2021/09/10 09:48:31;;;;;;;;;;;22.90;99.90;;;23.15;77.25;101145.47;5115376;28;20078;-72
2021/09/10 09:51:00;;;;;;;24.67;20.95;;;22.90;99.90;;;23.09;77.46;101130.44;5114962;28;19926;-72
2021/09/10 09:53:29;;;;;;;27.48;21.25;;;22.90;99.90;;;23.34;77.30;101184.09;5115099;28;20070;-72
2021/09/10 09:55:59;;;;;;;27.83;21.58;;;22.90;99.90;;;23.37;77.44;101183.03;5114853;28;20046;-72
2021/09/10 09:58:31;;;;;;;23.60;20.92;;;22.90;99.90;;;23.36;77.20;101175.91;5115235;28;20047;-72
2021/09/10 10:01:01;;;;;;;24.50;21.83;;;22.90;99.90;;;23.33;77.63;101176.94;5114790;28;20040;-72
2021/09/10 10:03:32;;;;;;;26.05;22.50;;;22.80;99.90;;;23.37;78.17;101172.25;5114559;28;20050;-72
2021/09/10 10:06:18;;;;;;;27.92;22.67;;;22.90;99.90;;;23.28;78.07;101157.38;5096827;28;20040;-72
2021/09/10 10:08:55;;;;;;;30.85;22.30;;;22.90;99.90;;;23.38;78.18;101177.59;5114272;28;20035;-73
2021/09/10 10:11:26;;;;;;;23.63;20.33;;;22.90;99.90;;;23.54;77.73;101180.34;5115120;28;20047;-67